Union, North Carolina
Current Conditions -  °F | °C
As of 6:15 PM on Friday 19 Dec 2014 (Local Time) from KRHP Reporting Station
Clear Clear  
Wind Chill: 37°   Ceiling: Unl
Heat Index: 41°   Visibility: 10mi
Dew Point: 34°   Wind: 7mph
Humidity: 76%   Direction: 270°W
Pressure: 30.11"   Gusts: NA
Location:  35.1737°N, 83.4215°W
Report Text: KRHP 192315Z AUTO 27006KT 10SM CLR 05/01 A3011 RMK AO2 T00510012
Loading
Personal Weather Stations






























Interactive Weather Map New forecast layout! Learn more

10-Day Weather Forecast

Advertisements
Track Severe Weather on mobile